Chivington, Colorado
Current Conditions -  °F | °C
As of 12:53 PM on Wednesday 26 Nov 2014 (Local Time) from KLAA Reporting Station
Clear Clear  
Wind Chill: 41°   Ceiling: Unl
Heat Index: 45°   Visibility: 10mi
Dew Point: 22°   Wind: 8mph
Humidity: 40%   Direction: 20°NNE
Pressure: 30.23"   Gusts: NA
Location:  38.4343°N, 102.505°W
Report Text: KLAA 261953Z AUTO 02007KT 10SM CLR 07/M06 A3023 RMK AO2 SLP241 T00721056
Loading
Personal Weather Stations






























Interactive Weather Map New forecast layout! Learn more

10-Day Weather Forecast

Advertisements
Track Severe Weather on mobile